.
WxDataArchive / Data Records for 2007-10-08
2007-10-07 October 2007 2007-10-09

Data Records for Monday, 08 October 2007

Time	Temp	Chill	HIndex	Humid	Dewpt	 Wind 	HiWind	WindDir	Rain 	Barom 
-----	----	-----	------	-----	-----	------	------	-------	-----	----- 
00:00	67.9	67.9	67.9	92	65.5	0	0	---	0.00	29.967 
00:05	67.8	67.8	67.8	92	65.4	0	0	---	0.00	29.966 
00:10	67.6	67.6	67.6	92	65.2	0	0	---	0.00	29.964 
00:15	67.6	67.6	67.6	93	65.5	0	0	---	0.00	29.964 
00:20	67.6	67.6	67.6	93	65.5	0	0	---	0.00	29.966 
00:25	67.4	67.4	67.4	93	65.3	0	0	---	0.00	29.967 
00:30	67.3	67.3	67.3	93	65.2	0	0	---	0.00	29.967 
00:35	67.3	67.3	67.3	93	65.2	0	0	---	0.00	29.969 
00:40	67.3	67.3	67.3	93	65.2	0	0	---	0.00	29.971 
00:45	67.3	67.3	67.3	94	65.5	0	0	---	0.00	29.970 
00:50	67.1	67.1	67.1	94	65.3	0	0	---	0.00	29.973 
00:55	67.1	67.1	67.1	94	65.3	0	0	---	0.00	29.973 
01:00	66.9	66.9	66.9	94	65.1	0	0	---	0.00	29.975 
01:05	66.9	66.9	66.9	94	65.1	0	0	---	0.00	29.975 
01:10	66.8	66.8	66.8	94	65.0	0	0	---	0.00	29.975 
01:15	66.8	66.8	66.8	94	65.0	0	0	---	0.00	29.975 
01:20	66.8	66.8	66.8	94	65.0	0	0	---	0.00	29.974 
01:25	66.6	66.6	66.6	94	64.8	0	0	---	0.00	29.975 
01:30	66.6	66.6	66.6	95	65.1	0	0	---	0.00	29.975 
01:35	66.6	66.6	66.6	95	65.1	0	0	---	0.00	29.976 
01:40	66.4	66.4	66.4	95	64.9	0	0	---	0.00	29.976 
01:45	66.4	66.4	66.4	95	64.9	0	0	---	0.00	29.978 
01:50	66.3	66.3	66.3	95	64.8	0	0	---	0.00	29.978 
01:55	66.3	66.3	66.3	95	64.8	0	0	---	0.00	29.976 
02:00	66.3	66.3	66.3	95	64.8	0	0	---	0.00	29.973 
02:05	66.1	66.1	66.1	95	64.6	0	0	---	0.00	29.973 
02:10	66.1	66.1	66.1	95	64.6	0	0	---	0.00	29.971 
02:15	66.1	66.1	66.1	95	64.6	0	0	---	0.00	29.969 
02:20	66.0	66.0	66.0	95	64.5	0	0	---	0.00	29.966 
02:25	66.0	66.0	66.0	95	64.5	0	0	---	0.00	29.966 
02:30	65.8	65.8	65.8	95	64.3	0	0	---	0.00	29.966 
02:35	65.8	65.8	65.8	95	64.3	0	0	---	0.00	29.966 
02:40	65.8	65.8	65.8	95	64.3	0	0	---	0.00	29.966 
02:45	65.6	65.6	65.6	96	64.4	0	0	---	0.00	29.965 
02:50	65.8	65.8	65.8	96	64.6	0	0	---	0.00	29.965 
02:55	65.6	65.6	65.6	96	64.4	0	0	---	0.00	29.964 
03:00	65.6	65.6	65.6	96	64.4	0	0	---	0.00	29.960 
03:05	65.5	65.5	65.5	96	64.3	0	0	---	0.00	29.956 
03:10	65.5	65.5	65.5	96	64.3	0	0	---	0.00	29.953 
03:15	65.5	65.5	65.5	96	64.3	0	0	---	0.00	29.951 
03:20	65.6	65.6	65.6	96	64.4	0	0	---	0.00	29.950 
03:25	65.6	65.6	65.6	96	64.4	0	0	---	0.00	29.950 
03:30	65.5	65.5	65.5	96	64.3	0	0	---	0.00	29.951 
03:35	65.5	65.5	65.5	96	64.3	0	0	---	0.00	29.951 
03:40	65.6	65.6	65.6	96	64.4	0	0	---	0.00	29.951 
03:45	65.6	65.6	65.6	96	64.4	0	0	---	0.00	29.952 
03:50	65.5	65.5	65.5	96	64.3	0	0	---	0.00	29.951 
03:55	65.5	65.5	65.5	96	64.3	0	0	---	0.00	29.950 
04:00	65.5	65.5	65.5	95	64.0	0	0	---	0.00	29.950 
04:05	65.3	65.3	65.3	96	64.1	0	0	---	0.00	29.952 
04:10	65.3	65.3	65.3	95	63.8	0	0	---	0.00	29.953 
04:15	65.3	65.3	65.3	95	63.8	0	0	---	0.00	29.953 
04:20	65.3	65.3	65.3	95	63.8	0	0	---	0.00	29.954 
04:25	65.2	65.2	65.2	96	64.0	0	0	---	0.00	29.954 
04:30	65.2	65.2	65.2	96	64.0	0	0	---	0.00	29.954 
04:35	65.2	65.2	65.2	96	64.0	0	0	---	0.00	29.956 
04:40	65.0	65.0	65.0	96	63.8	0	0	---	0.00	29.958 
04:45	65.0	65.0	65.0	96	63.8	0	0	---	0.00	29.958 
04:50	64.8	64.8	64.8	96	63.6	0	0	---	0.00	29.959 
04:55	64.8	64.8	64.8	96	63.6	0	0	---	0.00	29.961 
05:00	64.8	64.8	64.8	96	63.6	0	0	---	0.00	29.961 
05:05	64.8	64.8	64.8	96	63.6	0	0	---	0.00	29.964 
05:10	64.8	64.8	64.8	96	63.6	0	0	---	0.00	29.965 
05:15	64.8	64.8	64.8	96	63.6	0	0	---	0.00	29.964 
05:20	64.8	64.8	64.8	96	63.6	0	0	---	0.00	29.963 
05:25	64.8	64.8	64.8	96	63.6	0	0	---	0.00	29.965 
05:30	65.0	65.0	65.0	96	63.8	0	0	---	0.00	29.964 
05:35	65.0	65.0	65.0	96	63.8	0	0	---	0.00	29.964 
05:40	65.0	65.0	65.0	96	63.8	0	0	---	0.00	29.964 
05:45	65.0	65.0	65.0	96	63.8	0	0	---	0.00	29.965 
05:50	65.0	65.0	65.0	96	63.8	0	0	---	0.00	29.966 
05:55	64.8	64.8	64.8	96	63.6	0	0	---	0.00	29.967 
06:00	64.8	64.8	64.8	96	63.6	0	0	---	0.00	29.969 
06:05	65.0	65.0	65.0	96	63.8	0	0	---	0.00	29.974 
06:10	65.2	65.2	65.2	96	64.0	0	0	---	0.00	29.974 
06:15	65.3	65.3	65.3	96	64.1	0	0	---	0.00	29.975 
06:20	65.5	65.5	65.5	96	64.3	0	0	---	0.00	29.974 
06:25	65.5	65.5	65.5	96	64.3	0	0	---	0.00	29.973 
06:30	65.5	65.5	65.5	96	64.3	0	0	---	0.00	29.971 
06:35	65.5	65.5	65.5	96	64.3	0	0	---	0.00	29.972 
06:40	65.3	65.3	65.3	96	64.1	0	0	---	0.00	29.973 
06:45	65.3	65.3	65.3	96	64.1	0	0	---	0.00	29.972 
06:50	65.2	65.2	65.2	96	64.0	0	0	---	0.00	29.971 
06:55	65.2	65.2	65.2	96	64.0	0	0	---	0.00	29.972 
07:00	65.2	65.2	65.2	96	64.0	0	0	---	0.00	29.973 
07:05	65.0	65.0	65.0	96	63.8	0	0	---	0.00	29.976 
07:10	65.2	65.2	65.2	96	64.0	0	0	---	0.00	29.977 
07:15	65.2	65.2	65.2	96	64.0	0	0	---	0.00	29.976 
07:20	65.3	65.3	65.3	96	64.1	0	0	---	0.00	29.975 
07:25	65.3	65.3	65.3	96	64.1	0	0	---	0.00	29.976 
07:30	65.5	65.5	65.5	96	64.3	0	0	---	0.00	29.974 
07:35	65.6	65.6	65.6	96	64.4	0	0	---	0.00	29.972 
07:40	65.8	65.8	65.8	96	64.6	0	0	---	0.00	29.974 
07:45	66.1	66.1	66.1	96	64.9	0	0	---	0.00	29.974 
07:50	66.3	66.3	66.3	96	65.1	0	0	---	0.00	29.974 
07:55	66.6	66.6	66.6	96	65.4	0	0	---	0.00	29.974 
08:00	66.8	66.8	66.8	96	65.6	0	0	---	0.00	29.974 
08:05	66.8	66.8	66.8	96	65.6	0	0	---	0.00	29.975 
08:10	67.1	67.1	67.1	96	65.9	0	0	---	0.00	29.976 
08:15	67.3	67.3	67.3	96	66.1	0	0	---	0.00	29.976 
08:20	67.4	67.4	67.4	96	66.2	0	0	---	0.00	29.976 
08:25	67.6	67.6	67.6	96	66.4	0	0	---	0.00	29.975 
08:30	67.9	67.9	67.9	96	66.7	0	0	---	0.00	29.975 
08:35	68.3	68.3	68.3	95	66.8	0	0	---	0.00	29.974 
08:40	68.8	68.8	68.8	94	67.0	0	1	270	0.00	29.974 
08:45	69.6	69.6	69.6	90	66.5	0	1	270	0.00	29.973 
08:50	70.4	70.4	70.4	84	65.3	1	2	270	0.00	29.973 
08:55	71.6	71.6	71.6	82	65.8	0	1	270	0.00	29.970 
09:00	72.8	72.8	72.8	79	65.9	0	1	270	0.00	29.971 
09:05	74.0	74.0	74.0	76	65.9	0	2	270	0.00	29.969 
09:10	75.1	75.1	76.5	73	65.8	0	1	270	0.00	29.968 
09:15	76.0	76.0	77.5	72	66.3	0	1	270	0.00	29.967 
09:20	76.7	76.7	78.3	73	67.4	0	1	270	0.00	29.966 
09:25	77.4	77.4	79.3	70	66.8	0	1	270	0.00	29.965 
09:30	78.3	78.3	80.4	69	67.3	0	0	---	0.00	29.961 
09:35	78.8	78.8	80.9	66	66.5	0	2	270	0.00	29.962 
09:40	79.6	79.6	81.8	65	66.8	0	1	270	0.00	29.964 
09:45	79.8	79.8	81.8	62	65.6	1	2	270	0.00	29.960 
09:50	80.3	80.3	82.7	64	67.0	0	1	270	0.00	29.960 
09:55	80.7	80.7	82.7	60	65.5	1	2	270	0.00	29.959 
10:00	80.9	80.9	82.9	60	65.7	1	3	270	0.00	29.960 
10:05	81.1	81.1	83.2	60	65.9	1	3	248	0.00	29.960 
10:10	81.4	81.4	83.3	58	65.2	1	3	248	0.00	29.959 
10:15	82.2	82.2	84.3	58	65.9	0	1	248	0.00	29.958 
10:20	82.8	82.8	84.8	56	65.5	0	2	248	0.00	29.955 
10:25	83.0	83.0	84.9	55	65.1	0	2	315	0.00	29.954 
10:30	83.4	83.4	85.4	55	65.5	1	3	270	0.00	29.954 
10:35	83.8	83.8	86.0	55	65.9	0	4	248	0.00	29.952 
10:40	84.1	84.1	85.7	52	64.5	1	3	248	0.00	29.951 
10:45	84.5	84.5	86.5	53	65.5	1	3	248	0.00	29.951 
10:50	84.7	84.7	86.8	53	65.6	0	2	270	0.00	29.950 
10:55	85.3	85.3	87.4	52	65.6	0	1	270	0.00	29.949 
11:00	85.7	85.7	87.4	50	64.9	1	3	270	0.00	29.948 
11:05	85.7	85.7	86.9	48	63.7	2	4	248	0.00	29.948 
11:10	85.7	85.7	87.4	50	64.9	1	3	270	0.00	29.946 
11:15	85.9	85.9	87.5	49	64.5	1	2	270	0.00	29.943 
11:20	86.1	86.1	87.8	49	64.7	1	3	248	0.00	29.943 
11:25	86.3	86.3	87.8	48	64.3	1	4	248	0.00	29.941 
11:30	86.3	86.3	87.8	48	64.3	1	3	248	0.00	29.939 
11:35	86.3	86.3	88.0	49	64.9	1	3	225	0.00	29.939 
11:40	86.5	86.5	88.3	49	65.0	1	2	248	0.00	29.938 
11:45	87.0	87.0	88.5	47	64.3	1	3	270	0.00	29.937 
11:50	87.2	87.2	89.1	48	65.1	1	3	270	0.00	29.935 
11:55	87.4	87.4	88.8	46	64.0	1	4	270	0.00	29.935 
12:00	87.6	87.6	89.7	48	65.4	1	4	248	0.00	29.934 
12:05	87.6	87.6	88.8	45	63.6	2	5	270	0.00	29.934 
12:10	87.4	87.4	88.8	46	64.0	2	6	270	0.00	29.933 
12:15	87.8	87.8	89.4	46	64.4	1	3	270	0.00	29.930 
12:20	87.8	87.8	89.4	46	64.4	1	3	248	0.00	29.926 
12:25	87.0	87.0	88.2	46	63.7	2	5	248	0.00	29.924 
12:30	87.0	87.0	88.2	46	63.7	1	3	270	0.00	29.921 
12:35	87.2	87.2	88.5	46	63.9	1	2	90	0.00	29.918 
12:40	87.6	87.6	89.1	46	64.2	1	4	292	0.00	29.917 
12:45	88.0	88.0	89.7	46	64.6	1	4	248	0.00	29.914 
12:50	88.2	88.2	89.3	44	63.5	1	5	248	0.00	29.909 
12:55	88.2	88.2	89.7	45	64.1	1	3	270	0.00	29.906 
13:00	88.4	88.4	89.6	44	63.7	1	2	270	0.00	29.904 
13:05	88.6	88.6	89.9	44	63.9	0	2	90	0.00	29.902 
13:10	88.6	88.6	89.9	44	63.9	1	4	315	0.00	29.902 
13:15	88.2	88.2	89.0	43	62.8	1	3	270	0.00	29.902 
13:20	88.0	88.0	89.4	45	64.0	1	3	270	0.00	29.901 
13:25	88.4	88.4	89.6	44	63.7	1	5	270	0.00	29.899 
13:30	88.4	88.4	89.3	43	63.0	2	3	270	0.00	29.892 
13:35	88.2	88.2	89.0	43	62.8	1	3	315	0.00	29.889 
13:40	88.2	88.2	88.7	42	62.2	2	4	270	0.00	29.888 
13:45	88.4	88.4	89.0	42	62.3	1	4	270	0.00	29.886 
13:50	88.6	88.6	89.6	43	63.2	1	4	248	0.00	29.885 
13:55	89.0	89.0	90.2	43	63.6	1	3	270	0.00	29.882 
14:00	88.8	88.8	89.9	43	63.4	2	6	225	0.00	29.879 
14:05	88.4	88.4	89.3	43	63.0	1	3	292	0.00	29.880 
14:10	88.2	88.2	89.3	44	63.5	1	3	292	0.00	29.879 
14:15	88.4	88.4	89.3	43	63.0	1	3	248	0.00	29.879 
14:20	88.6	88.6	88.7	40	61.1	2	5	248	0.00	29.879 
14:25	88.8	88.8	89.3	41	62.0	1	4	270	0.00	29.874 
14:30	89.0	89.0	89.9	42	62.9	1	4	248	0.00	29.874 
14:35	89.0	89.0	89.3	40	61.5	2	4	270	0.00	29.873 
14:40	89.0	89.0	89.6	41	62.2	1	3	270	0.00	29.872 
14:45	89.3	89.3	89.7	40	61.8	1	4	270	0.00	29.871 
14:50	88.8	88.8	89.0	40	61.3	1	3	270	0.00	29.870 
14:55	89.0	89.0	89.6	41	62.2	1	2	270	0.00	29.867 
15:00	89.0	89.0	89.6	41	62.2	1	3	270	0.00	29.864 
15:05	88.8	88.8	89.0	40	61.3	1	3	248	0.00	29.861 
15:10	88.6	88.6	88.4	39	60.4	1	3	270	0.00	29.858 
15:15	88.8	88.8	88.7	39	60.6	2	5	248	0.00	29.856 
15:20	89.3	89.3	89.4	39	61.0	1	3	248	0.00	29.856 
15:25	89.3	89.3	89.7	40	61.8	0	3	270	0.00	29.855 
15:30	89.3	89.3	89.7	40	61.8	1	4	248	0.00	29.853 
15:35	88.8	88.8	88.7	39	60.6	1	3	248	0.00	29.854 
15:40	88.6	88.6	89.0	41	61.8	1	3	248	0.00	29.852 
15:45	88.2	88.2	88.4	41	61.5	0	2	248	0.00	29.849 
15:50	88.2	88.2	88.4	41	61.5	1	3	270	0.00	29.846 
15:55	88.2	88.2	88.2	40	60.8	1	3	270	0.00	29.846 
16:00	88.2	88.2	88.4	41	61.5	1	4	248	0.00	29.843 
16:05	88.4	88.4	88.2	39	60.3	1	2	248	0.00	29.843 
16:10	88.2	88.2	87.9	39	60.1	1	3	270	0.00	29.842 
16:15	88.2	88.2	88.2	40	60.8	1	3	248	0.00	29.842 
16:20	88.0	88.0	87.9	40	60.6	1	4	270	0.00	29.841 
16:25	87.8	87.8	87.6	40	60.4	1	3	270	0.00	29.841 
16:30	87.8	87.8	87.6	40	60.4	1	4	248	0.00	29.840 
16:35	87.6	87.6	87.6	41	60.9	0	1	248	0.00	29.838 
16:40	87.4	87.4	87.4	41	60.8	0	2	248	0.00	29.830 
16:45	87.2	87.2	87.4	42	61.3	0	2	225	0.00	29.829 
16:50	87.2	87.2	87.1	41	60.6	0	2	248	0.00	29.830 
16:55	87.0	87.0	87.1	42	61.1	0	2	270	0.00	29.831 
17:00	86.7	86.7	87.0	43	61.5	0	2	270	0.00	29.833 
17:05	86.3	86.3	86.2	42	60.5	1	2	248	0.00	29.830 
17:10	86.3	86.3	86.2	42	60.5	1	3	270	0.00	29.830 
17:15	86.1	86.1	86.0	42	60.3	1	3	248	0.00	29.830 
17:20	85.9	85.9	86.0	43	60.8	0	2	248	0.00	29.828 
17:25	85.5	85.5	85.7	44	61.1	0	1	248	0.00	29.827 
17:30	85.3	85.3	85.5	44	60.9	0	1	248	0.00	29.822 
17:35	84.9	84.9	85.0	44	60.5	0	2	248	0.00	29.821 
17:40	84.7	84.7	84.7	44	60.3	0	2	248	0.00	29.821 
17:45	84.3	84.3	84.7	46	61.2	0	0	---	0.00	29.820 
17:50	84.0	84.0	84.3	46	61.0	0	1	248	0.00	29.818 
17:55	83.4	83.4	83.8	47	61.0	0	1	248	0.00	29.815 
18:00	83.0	83.0	83.5	48	61.3	0	0	---	0.00	29.814 
18:05	82.4	82.4	83.0	49	61.3	0	0	---	0.00	29.814 
18:10	81.8	81.8	82.6	50	61.3	0	0	---	0.00	29.816 
18:15	81.2	81.2	82.1	51	61.3	0	0	---	0.00	29.817 
18:20	80.7	80.7	81.7	52	61.4	0	0	---	0.00	29.817 
18:25	80.3	80.3	81.5	54	62.1	0	0	---	0.00	29.821 
18:30	79.8	79.8	81.0	54	61.7	0	0	---	0.00	29.824 
18:35	79.4	79.4	80.7	55	61.8	0	0	---	0.00	29.828 
18:40	78.8	78.8	80.3	57	62.3	0	0	---	0.00	29.829 
18:45	78.3	78.3	79.9	58	62.3	0	0	---	0.00	29.828 
18:50	77.9	77.9	79.5	58	61.9	0	0	---	0.00	29.830 
18:55	77.6	77.6	79.3	59	62.1	0	0	---	0.00	29.831 
19:00	77.4	77.4	79.1	59	61.9	0	0	---	0.00	29.829 
19:05	77.0	77.0	78.8	59	61.6	0	0	---	0.00	29.828 
19:10	77.0	77.0	78.8	59	61.6	0	0	---	0.00	29.829 
19:15	77.2	77.2	78.9	59	61.7	0	0	---	0.00	29.831 
19:20	77.0	77.0	78.8	60	62.0	0	0	---	0.00	29.832 
19:25	76.7	76.7	78.5	60	61.7	0	0	---	0.00	29.833 
19:30	76.8	76.8	78.6	59	61.4	0	1	248	0.00	29.832 
19:35	77.0	77.0	78.8	59	61.6	0	1	248	0.00	29.832 
19:40	77.2	77.2	78.9	59	61.7	0	1	248	0.00	29.832 
19:45	77.0	77.0	78.8	58	61.1	0	1	248	0.00	29.832 
19:50	77.2	77.2	78.9	58	61.3	0	1	248	0.00	29.832 
19:55	77.2	77.2	78.9	58	61.3	0	1	248	0.00	29.831 
20:00	77.2	77.2	78.9	58	61.3	0	1	248	0.00	29.831 
20:05	76.8	76.8	78.6	59	61.4	0	0	---	0.00	29.827 
20:10	76.7	76.7	78.5	60	61.7	0	0	---	0.00	29.827 
20:15	76.1	76.1	78.1	60	61.2	0	0	---	0.00	29.828 
20:20	76.0	76.0	78.0	61	61.6	0	0	---	0.00	29.828 
20:25	75.8	75.8	77.8	61	61.4	0	0	---	0.00	29.827 
20:30	75.4	75.4	77.5	62	61.5	0	1	248	0.00	29.829 
20:35	75.3	75.3	77.5	62	61.4	0	0	---	0.00	29.829 
20:40	75.1	75.1	77.3	62	61.2	0	1	248	0.00	29.829 
20:45	75.3	75.3	77.5	61	60.9	0	1	248	0.00	29.829 
20:50	75.6	75.6	77.7	60	60.7	0	1	248	0.00	29.829 
20:55	76.0	76.0	78.0	60	61.1	0	1	248	0.00	29.830 
21:00	76.0	76.0	78.0	60	61.1	0	0	---	0.00	29.829 
21:05	75.8	75.8	77.9	60	60.9	0	1	248	0.00	29.822 
21:10	75.8	75.8	77.9	60	60.9	0	1	248	0.00	29.822 
21:15	76.0	76.0	78.0	60	61.1	0	1	248	0.00	29.823 
21:20	76.1	76.1	78.1	59	60.7	0	1	248	0.00	29.824 
21:25	76.1	76.1	78.1	59	60.7	0	1	248	0.00	29.824 
21:30	76.3	76.3	78.2	59	60.9	0	1	248	0.00	29.825 
21:35	76.3	76.3	78.2	59	60.9	0	1	248	0.00	29.825 
21:40	76.3	76.3	78.2	59	60.9	0	1	248	0.00	29.826 
21:45	76.5	76.5	78.4	58	60.6	1	3	248	0.00	29.823 
21:50	76.5	76.5	78.4	58	60.6	0	1	248	0.00	29.825 
21:55	76.5	76.5	78.4	58	60.6	0	2	248	0.00	29.829 
22:00	76.7	76.7	78.5	58	60.8	1	3	248	0.00	29.829 
22:05	76.8	76.8	78.6	58	60.9	1	3	248	0.00	29.825 
22:10	77.0	77.0	78.7	57	60.6	1	2	270	0.00	29.826 
22:15	77.4	77.4	79.0	56	60.5	1	3	270	0.00	29.824 
22:20	77.6	77.6	79.2	56	60.6	1	3	270	0.00	29.823 
22:25	77.7	77.7	79.3	56	60.7	1	2	270	0.00	29.826 
22:30	77.7	77.7	79.3	56	60.7	1	3	248	0.00	29.824 
22:35	77.9	77.9	79.4	55	60.4	1	2	248	0.00	29.822 
22:40	77.7	77.7	79.3	56	60.7	0	1	248	0.00	29.820 
22:45	77.6	77.6	79.2	56	60.6	0	2	248	0.00	29.818 
22:50	77.2	77.2	78.9	57	60.8	0	1	248	0.00	29.819 
22:55	77.0	77.0	78.7	57	60.6	0	2	248	0.00	29.818 
23:00	76.8	76.8	78.6	57	60.4	0	2	248	0.00	29.817 
23:05	76.8	76.8	78.6	58	60.9	0	2	248	0.00	29.811 
23:10	76.5	76.5	78.4	58	60.6	1	3	248	0.00	29.818 
23:15	76.8	76.8	78.6	58	60.9	3	7	270	0.00	29.821 
23:20	76.8	76.8	78.6	58	60.9	2	4	270	0.00	29.819 
23:25	76.5	76.5	78.4	59	61.1	1	3	270	0.00	29.819 
23:30	76.1	76.1	78.1	59	60.7	1	3	270	0.00	29.819 
23:35	75.8	75.8	77.9	60	60.9	1	3	270	0.00	29.820 
23:40	75.6	75.6	77.7	62	61.6	1	3	225	0.00	29.821 
23:45	75.4	75.4	77.5	63	61.9	1	4	315	0.00	29.821 
23:50	75.1	75.1	77.3	63	61.6	1	2	292	0.00	29.820 
23:55	74.9	74.9	74.9	65	62.3	1	3	315	0.00	29.820 

CoCoRaHS
IN-AL-39
A2 Web Hosting
Creative Commons License
GoDaddy
Look for:

loaded 2017-10-19 20:01:29 • last modified 2010-11-18 10:43:29
Privacy PolicyDisclaimer
• wx.awcolley.com is powered by PmWiki v.2002016 •
• all content (unless otherwise noted) © 2017 A W Colley